createdAt,value
2023-03-23T15:59:04.057Z,100205.56
2023-03-23T16:01:31.157Z,100211.03
2023-03-23T16:04:08.393Z,100215.47
2023-03-23T16:06:35.866Z,100218.53
2023-03-23T16:09:03.685Z,100222.09
2023-03-23T16:11:31.372Z,100224.47
2023-03-23T16:13:59.008Z,100223.47
2023-03-23T16:16:29.813Z,100219.34
2023-03-23T16:18:56.406Z,100224.63
2023-03-23T16:21:23.436Z,100212.84
2023-03-23T16:23:49.926Z,100221.13
2023-03-23T16:26:16.893Z,100223.84
2023-03-23T16:28:43.707Z,100220.06
2023-03-23T16:31:10.724Z,100219.53
2023-03-23T16:33:37.606Z,100216.94
2023-03-23T16:36:04.264Z,100216.22
2023-03-23T16:38:30.924Z,100215.16
2023-03-23T16:40:57.468Z,100213.25
2023-03-23T16:43:23.944Z,100210.81
2023-03-23T16:45:50.470Z,100221.88
2023-03-23T16:48:17.283Z,100226.75
2023-03-23T16:50:44.885Z,100232.16
2023-03-23T16:53:12.252Z,100223.56
2023-03-23T16:55:39.409Z,100221.47
2023-03-23T16:58:16.128Z,100234.31
2023-03-23T17:00:48.643Z,100242.75
2023-03-23T17:03:15.552Z,100243.56
2023-03-23T17:05:42.287Z,100249.59
2023-03-23T17:08:08.906Z,100246.28
2023-03-23T17:10:38.243Z,100258.50
2023-03-23T17:13:04.810Z,100263.31
2023-03-23T17:15:31.383Z,100263.09
2023-03-23T17:17:57.947Z,100258.56
2023-03-23T17:20:24.481Z,100276.13
2023-03-23T17:22:50.944Z,100279.66
2023-03-23T17:25:17.452Z,100279.72
2023-03-23T17:27:43.979Z,100282.75
2023-03-23T17:30:11.552Z,100284.78
2023-03-23T17:32:38.303Z,100293.66
2023-03-23T17:35:05.969Z,100281.81
2023-03-23T17:37:34.348Z,100288.59
2023-03-23T17:40:00.822Z,100290.91
2023-03-23T17:42:29.137Z,100297.06
2023-03-23T17:44:55.614Z,100298.66
2023-03-23T17:47:22.210Z,100303.00
2023-03-23T17:49:48.674Z,100301.00
2023-03-23T17:52:15.299Z,100308.59
2023-03-23T17:54:42.048Z,100309.03
2023-03-23T17:57:08.919Z,100314.16
2023-03-23T17:59:35.555Z,100317.63
2023-03-23T18:02:02.091Z,100316.63
2023-03-23T18:04:28.569Z,100321.66
2023-03-23T18:06:58.844Z,100322.66
2023-03-23T18:09:25.876Z,100320.41
2023-03-23T18:11:52.568Z,100322.25
2023-03-23T18:14:19.156Z,100326.84
2023-03-23T18:16:45.712Z,100329.94
2023-03-23T18:19:12.290Z,100321.66
2023-03-23T18:21:38.751Z,100327.66
2023-03-23T18:24:05.490Z,100323.06
2023-03-23T18:26:32.102Z,100328.34
2023-03-23T18:28:58.567Z,100322.91
2023-03-23T18:31:25.151Z,100319.03
2023-03-23T18:33:52.673Z,100323.72
2023-03-23T18:36:21.650Z,100326.28
2023-03-23T18:38:49.157Z,100328.88
2023-03-23T18:41:16.530Z,100333.53
2023-03-23T18:43:43.406Z,100340.38
2023-03-23T18:46:09.940Z,100338.47
2023-03-23T18:48:36.461Z,100342.47
2023-03-23T18:51:03.750Z,100347.72
2023-03-23T18:53:31.067Z,100348.56
2023-03-23T18:56:10.020Z,100351.22
2023-03-23T18:58:36.595Z,100352.38
2023-03-23T19:01:09.324Z,100363.44
2023-03-23T19:03:36.944Z,100359.88
2023-03-23T19:06:03.760Z,100347.84
2023-03-23T19:08:31.012Z,100344.97
2023-03-23T19:11:00.254Z,100359.84
2023-03-23T19:13:31.444Z,100358.38
2023-03-23T19:15:57.928Z,100352.78
2023-03-23T19:18:24.551Z,100364.25
2023-03-23T19:23:22.251Z,100364.88
2023-03-23T19:25:50.376Z,100370.00
2023-03-23T19:30:49.055Z,100362.63
2023-03-23T19:33:16.581Z,100360.44
2023-03-23T19:35:44.665Z,100360.56
2023-03-23T19:38:11.612Z,100363.41
2023-03-23T19:40:42.103Z,100359.88
2023-03-23T19:43:09.829Z,100369.38
2023-03-23T19:45:36.543Z,100372.28
2023-03-23T19:48:03.499Z,100374.78
2023-03-23T19:50:30.133Z,100380.66
2023-03-23T19:52:58.664Z,100380.47
2023-03-23T19:55:26.592Z,100379.28
2023-03-23T19:57:53.110Z,100394.13
2023-03-23T20:00:19.751Z,100392.03
2023-03-23T20:02:46.335Z,100402.59
2023-03-23T20:05:12.883Z,100391.66
2023-03-23T20:07:41.621Z,100393.97
2023-03-23T20:10:10.486Z,100389.78
2023-03-23T20:12:36.970Z,100388.66
2023-03-23T20:15:04.101Z,100387.91
2023-03-23T20:17:30.708Z,100398.75
2023-03-23T20:19:57.594Z,100398.75
2023-03-23T20:22:24.110Z,100393.81
2023-03-23T20:24:50.616Z,100401.38
2023-03-23T20:27:17.688Z,100379.56
2023-03-23T20:29:44.281Z,100390.22
2023-03-23T20:32:10.821Z,100380.94
2023-03-23T20:34:37.242Z,100382.63
2023-03-23T20:37:03.957Z,100393.06
2023-03-23T20:39:32.832Z,100393.69
2023-03-23T20:42:01.714Z,100401.16
2023-03-23T20:44:28.773Z,100410.38
2023-03-23T20:46:55.346Z,100406.78
2023-03-23T20:49:22.090Z,100410.81
2023-03-23T20:51:49.043Z,100412.03
2023-03-23T20:54:17.342Z,100399.88
2023-03-23T20:56:44.473Z,100400.44
2023-03-23T20:59:11.595Z,100396.13
2023-03-23T21:01:38.159Z,100395.00
2023-03-23T21:04:04.660Z,100402.59
2023-03-23T21:06:31.220Z,100396.22
2023-03-23T21:08:58.094Z,100403.44
2023-03-23T21:11:26.507Z,100401.34
2023-03-23T21:13:53.509Z,100413.19
2023-03-23T21:16:20.122Z,100413.69
2023-03-23T21:18:46.611Z,100424.69
2023-03-23T21:21:13.308Z,100418.91
2023-03-23T21:23:41.051Z,100417.63
2023-03-23T21:26:07.970Z,100422.09
2023-03-23T21:28:34.461Z,100425.34
2023-03-23T21:31:02.836Z,100420.09
2023-03-23T21:33:29.320Z,100415.06
2023-03-23T21:35:55.840Z,100425.22
2023-03-23T21:38:22.394Z,100422.19
2023-03-23T21:40:48.872Z,100407.66
2023-03-23T21:43:15.302Z,100413.03
2023-03-23T21:45:43.290Z,100404.19
2023-03-23T21:48:11.127Z,100412.91
2023-03-23T21:50:39.499Z,100414.78
2023-03-23T21:53:05.983Z,100415.19
2023-03-23T21:55:33.269Z,100412.28
2023-03-23T21:58:00.621Z,100421.44
2023-03-23T22:00:27.126Z,100433.16
2023-03-23T22:02:53.951Z,100424.66
2023-03-23T22:05:21.048Z,100428.34
2023-03-23T22:07:47.568Z,100423.72
2023-03-23T22:10:14.047Z,100430.94
2023-03-23T22:12:40.957Z,100429.72
2023-03-23T22:15:09.756Z,100429.13
2023-03-23T22:17:36.839Z,100425.56
2023-03-23T22:20:09.404Z,100432.31
2023-03-23T22:22:35.891Z,100429.63
2023-03-23T22:25:03.268Z,100429.63
2023-03-23T22:27:29.730Z,100431.47
2023-03-23T22:29:56.247Z,100429.84
2023-03-23T22:32:22.715Z,100434.50
2023-03-23T22:34:49.181Z,100427.81
2023-03-23T22:37:15.679Z,100439.50
2023-03-23T22:39:42.331Z,100432.66
2023-03-23T22:42:09.478Z,100442.97
2023-03-23T22:44:36.662Z,100441.75
2023-03-23T22:47:03.132Z,100434.19
2023-03-23T22:49:29.612Z,100432.47
2023-03-23T22:51:56.688Z,100444.00
2023-03-23T22:54:23.154Z,100439.66
2023-03-23T22:56:49.981Z,100442.69
2023-03-23T22:59:16.619Z,100443.00
2023-03-23T23:01:43.070Z,100437.72
2023-03-23T23:04:09.661Z,100435.22
2023-03-23T23:06:36.277Z,100431.81
2023-03-23T23:09:03.848Z,100441.88
2023-03-23T23:11:30.362Z,100439.69
2023-03-23T23:13:57.101Z,100439.34
2023-03-23T23:16:23.926Z,100445.91
2023-03-23T23:18:50.649Z,100441.88
2023-03-23T23:21:20.308Z,100443.81
2023-03-23T23:23:47.189Z,100446.91
2023-03-23T23:26:15.938Z,100438.38
2023-03-23T23:28:43.532Z,100442.13
2023-03-23T23:31:17.120Z,100442.31
2023-03-23T23:33:43.607Z,100448.66
2023-03-23T23:36:10.605Z,100441.66
2023-03-23T23:38:37.034Z,100450.31
2023-03-23T23:41:03.540Z,100440.72
2023-03-23T23:43:30.086Z,100436.53
2023-03-23T23:45:56.815Z,100441.13
2023-03-23T23:48:23.358Z,100432.09
2023-03-23T23:50:51.375Z,100429.53
2023-03-23T23:53:17.877Z,100435.78
2023-03-23T23:55:44.325Z,100431.13
2023-03-23T23:58:10.781Z,100438.69
